Time;durP1;ratioP1;P1;durP2;ratioP2;P2;SDS_P1;SDS_P2;PMS_P1;PMS_P2;Temp;Humidity;BMP_temperature;BMP_pressure;BME280_temperature;BME280_humidity;BME280_pressure;Samples;Min_cycle;Max_cycle;Signal;HPM_P1;HPM_P2
2022/01/15 00:02:15;;;;;;;106.27;31.83;;;;;;;;;;5038310;28;20178;-65
2022/01/15 00:04:41;;;;;;;118.67;32.67;;;;;;;;;;5036316;28;20707;-64
2022/01/15 00:07:07;;;;;;;107.33;31.57;;;;;;;;;;5036864;28;20202;-63
2022/01/15 00:09:33;;;;;;;112.30;29.93;;;;;;;;;;5037973;28;20263;-64
2022/01/15 00:11:59;;;;;;;120.23;31.27;;;;;;;;;;5038723;28;20179;-62
2022/01/15 00:14:31;;;;;;;123.87;31.57;;;;;;;;;;5036298;28;20264;-63
2022/01/15 00:17:05;;;;;;;117.27;30.63;;;;;;;;;;5036598;28;20339;-63
2022/01/15 00:19:41;;;;;;;116.17;33.10;;;;;;;;;;5036744;28;20198;-64
2022/01/15 00:22:07;;;;;;;131.23;31.43;;;;;;;;;;5037851;28;20393;-68
2022/01/15 00:24:33;;;;;;;114.17;33.10;;;;;;;;;;5037650;28;20199;-64
2022/01/15 00:26:59;;;;;;;110.87;31.70;;;;;;;;;;5037643;28;20643;-63
2022/01/15 00:29:29;;;;;;;109.63;28.53;;;;;;;;;;5037717;28;20230;-63
2022/01/15 00:31:55;;;;;;;123.03;30.63;;;;;;;;;;5038723;28;20203;-63
2022/01/15 00:34:21;;;;;;;107.47;30.27;;;;;;;;;;5041495;28;20206;-63
2022/01/15 00:36:47;;;;;;;124.73;30.93;;;;;;;;;;5041251;28;20217;-65
2022/01/15 00:39:13;;;;;;;118.93;34.20;;;;;;;;;;5039217;28;20182;-64
2022/01/15 00:41:39;;;;;;;108.93;31.10;;;;;;;;;;5041336;28;20183;-64
2022/01/15 00:44:05;;;;;;;108.30;31.50;;;;;;;;;;5041316;28;20203;-63
2022/01/15 00:46:31;;;;;;;93.00;29.63;;;;;;;;;;5041467;28;20179;-64
2022/01/15 00:48:57;;;;;;;86.13;29.27;;;;;;;;;;5038778;28;20213;-64
2022/01/15 00:51:24;;;;;;;93.57;28.73;;;;;;;;;;5040720;28;20554;-63
2022/01/15 00:53:50;;;;;;;84.03;26.07;;;;;;;;;;5040730;28;20191;-63
2022/01/15 00:56:16;;;;;;;80.93;26.47;;;;;;;;;;5041480;28;20549;-63
2022/01/15 00:58:42;;;;;;;90.80;30.40;;;;;;;;;;5040631;28;20215;-63
2022/01/15 01:01:08;;;;;;;86.40;28.10;;;;;;;;;;5039225;28;20210;-64
2022/01/15 01:03:34;;;;;;;97.10;28.03;;;;;;;;;;5039830;28;20199;-63
2022/01/15 01:06:00;;;;;;;89.53;28.30;;;;;;;;;;5040571;28;20241;-65
2022/01/15 01:08:26;;;;;;;63.33;23.93;;;;;;;;;;5040747;28;20179;-63
2022/01/15 01:11:00;;;;;;;71.90;25.23;;;;;;;;;;5040718;28;20255;-63
2022/01/15 01:13:42;;;;;;;65.27;24.03;;;;;;;;;;5039640;28;20174;-65
2022/01/15 01:24:40;;;;;;;78.13;25.23;;;;;;;;;;5018972;28;20350;-66
2022/01/15 01:27:20;;;;;;;71.37;24.43;;;;;;;;;;5030751;28;20573;-64
2022/01/15 01:30:07;;;;;;;77.43;25.30;;;;;;;;;;5040038;28;20329;-64
2022/01/15 01:32:43;;;;;;;66.40;24.67;;;;;;;;;;5040571;28;20156;-65
2022/01/15 01:35:15;;;;;;;77.87;26.40;;;;;;;;;;5038657;28;20206;-62
2022/01/15 01:37:47;;;;;;;69.53;25.47;;;;;;;;;;5039968;28;20151;-63
2022/01/15 01:40:21;;;;;;;80.10;25.93;;;;;;;;;;5038349;28;20195;-63
2022/01/15 01:42:58;;;;;;;84.47;26.03;;;;;;;;;;5037006;28;20254;-64
2022/01/15 01:45:24;;;;;;;83.43;24.80;;;;;;;;;;5037454;28;20229;-64
2022/01/15 01:47:50;;;;;;;86.10;24.63;;;;;;;;;;5039294;28;20201;-63
2022/01/15 01:50:21;;;;;;;95.30;24.47;;;;;;;;;;5039149;28;20670;-64
2022/01/15 01:52:48;;;;;;;82.37;24.40;;;;;;;;;;5039527;28;20326;-64
2022/01/15 01:55:15;;;;;;;94.73;23.67;;;;;;;;;;5037849;28;20298;-68
2022/01/15 01:57:41;;;;;;;78.03;22.63;;;;;;;;;;5038563;28;20190;-64
2022/01/15 02:00:09;;;;;;;82.90;23.87;;;;;;;;;;5037846;28;20191;-63
2022/01/15 02:02:35;;;;;;;93.80;24.63;;;;;;;;;;5038722;28;20534;-64
2022/01/15 02:05:01;;;;;;;79.90;22.80;;;;;;;;;;5038499;28;20223;-63
2022/01/15 02:07:28;;;;;;;71.93;23.17;;;;;;;;;;5039137;28;20210;-65
2022/01/15 02:09:55;;;;;;;63.00;21.73;;;;;;;;;;5038387;28;20207;-63
2022/01/15 02:12:21;;;;;;;88.53;24.37;;;;;;;;;;5039475;28;20175;-64
2022/01/15 02:14:47;;;;;;;79.83;21.20;;;;;;;;;;5036988;28;20468;-65
2022/01/15 02:17:18;;;;;;;75.23;22.17;;;;;;;;;;5037855;28;20175;-65
2022/01/15 02:20:09;;;;;;;76.47;23.33;;;;;;;;;;5038131;28;20254;-63
2022/01/15 02:25:14;;;;;;;67.97;22.97;;;;;;;;;;5038903;28;20210;-65
2022/01/15 02:27:40;;;;;;;77.67;24.17;;;;;;;;;;5038562;28;20184;-62
2022/01/15 02:30:07;;;;;;;79.47;23.17;;;;;;;;;;5038327;28;20262;-62
2022/01/15 02:32:33;;;;;;;78.57;22.60;;;;;;;;;;5039035;28;20182;-65
2022/01/15 02:35:02;;;;;;;74.67;24.90;;;;;;;;;;5038606;28;20195;-63
2022/01/15 02:37:31;;;;;;;81.20;23.27;;;;;;;;;;5038277;28;20194;-63
2022/01/15 02:39:58;;;;;;;70.73;23.47;;;;;;;;;;5038212;28;20202;-65
2022/01/15 02:42:27;;;;;;;79.47;23.40;;;;;;;;;;5036444;28;20194;-63
2022/01/15 02:44:59;;;;;;;75.60;22.13;;;;;;;;;;5038009;28;20198;-63
2022/01/15 02:48:10;;;;;;;73.23;24.57;;;;;;;;;;5038795;28;20160;-63
2022/01/15 02:50:12;;;;;;;73.83;23.70;;;;;;;;;;5034086;28;20206;-64
2022/01/15 02:52:38;;;;;;;73.63;24.37;;;;;;;;;;5036920;28;20179;-64
2022/01/15 02:55:04;;;;;;;77.00;24.07;;;;;;;;;;5035451;28;20258;-64
2022/01/15 02:57:30;;;;;;;70.10;25.00;;;;;;;;;;5037142;28;20179;-63
2022/01/15 02:59:56;;;;;;;68.10;24.50;;;;;;;;;;5038383;28;20663;-70
2022/01/15 03:02:23;;;;;;;68.83;24.07;;;;;;;;;;5038690;28;20179;-63
2022/01/15 03:04:49;;;;;;;63.93;23.37;;;;;;;;;;5038012;28;20215;-63
2022/01/15 03:07:15;;;;;;;69.47;23.77;;;;;;;;;;5037201;28;20183;-64
2022/01/15 03:09:41;;;;;;;69.97;24.93;;;;;;;;;;5037841;28;20205;-63
2022/01/15 03:12:07;;;;;;;75.10;24.53;;;;;;;;;;5038061;28;20175;-65
2022/01/15 03:14:33;;;;;;;65.30;23.87;;;;;;;;;;5038217;28;20679;-63
2022/01/15 03:16:59;;;;;;;79.23;25.57;;;;;;;;;;5038526;28;20407;-64
2022/01/15 03:19:25;;;;;;;79.13;26.83;;;;;;;;;;5036999;28;20183;-62
2022/01/15 03:21:51;;;;;;;73.83;25.80;;;;;;;;;;5038664;28;20410;-64
2022/01/15 03:24:17;;;;;;;77.67;25.73;;;;;;;;;;5037812;28;20337;-64
2022/01/15 03:26:43;;;;;;;86.53;26.90;;;;;;;;;;5037626;28;20205;-63
2022/01/15 03:29:09;;;;;;;71.63;24.73;;;;;;;;;;5038092;28;20203;-64
2022/01/15 03:31:35;;;;;;;70.97;25.47;;;;;;;;;;5037528;28;20266;-63
2022/01/15 03:34:01;;;;;;;61.77;23.60;;;;;;;;;;5061758;22;20199;-66
2022/01/15 03:36:27;;;;;;;80.33;25.63;;;;;;;;;;5049658;28;20245;-67
2022/01/15 03:38:53;;;;;;;57.10;20.80;;;;;;;;;;5049105;28;20262;-67
2022/01/15 03:41:19;;;;;;;55.50;22.00;;;;;;;;;;5049074;28;20187;-67
2022/01/15 03:43:45;;;;;;;66.13;23.97;;;;;;;;;;5048939;28;20630;-67
2022/01/15 03:46:11;;;;;;;63.43;24.50;;;;;;;;;;5033444;28;20198;-67
2022/01/15 03:48:37;;;;;;;67.33;25.87;;;;;;;;;;5033980;28;20627;-67
2022/01/15 03:51:03;;;;;;;63.33;22.90;;;;;;;;;;5033531;28;20589;-67
2022/01/15 03:53:29;;;;;;;52.50;20.77;;;;;;;;;;5032349;28;20190;-67
2022/01/15 03:55:55;;;;;;;55.37;21.33;;;;;;;;;;5033902;28;20325;-67
2022/01/15 03:58:21;;;;;;;57.60;21.23;;;;;;;;;;5032388;28;20183;-67
2022/01/15 04:00:47;;;;;;;54.57;21.70;;;;;;;;;;5032219;28;20179;-67
2022/01/15 04:03:14;;;;;;;38.80;16.43;;;;;;;;;;5033677;28;20179;-67
2022/01/15 04:05:40;;;;;;;44.80;18.40;;;;;;;;;;5034404;28;20282;-67
2022/01/15 04:08:06;;;;;;;43.27;18.07;;;;;;;;;;5037793;28;20410;-67
2022/01/15 04:10:32;;;;;;;44.17;19.20;;;;;;;;;;5036640;28;20301;-67
2022/01/15 04:12:58;;;;;;;48.07;21.23;;;;;;;;;;5036413;28;20218;-67
2022/01/15 04:15:25;;;;;;;48.23;18.83;;;;;;;;;;5038138;28;20262;-68
2022/01/15 04:17:51;;;;;;;46.13;20.00;;;;;;;;;;5037778;28;20210;-67
2022/01/15 04:20:20;;;;;;;49.03;21.07;;;;;;;;;;5036293;28;20221;-67
2022/01/15 04:22:46;;;;;;;43.53;19.23;;;;;;;;;;5036327;28;20187;-67
2022/01/15 04:25:12;;;;;;;36.23;15.67;;;;;;;;;;5037575;28;20203;-67
2022/01/15 04:27:38;;;;;;;36.53;15.80;;;;;;;;;;5037667;28;20718;-67
2022/01/15 04:30:06;;;;;;;30.00;15.00;;;;;;;;;;5037719;28;20238;-67
2022/01/15 04:32:32;;;;;;;26.57;14.33;;;;;;;;;;5036169;28;20183;-66
2022/01/15 04:34:58;;;;;;;24.37;13.90;;;;;;;;;;5037461;28;20453;-67
2022/01/15 04:37:32;;;;;;;32.17;15.80;;;;;;;;;;5038002;28;20186;-67
2022/01/15 04:39:58;;;;;;;43.30;21.27;;;;;;;;;;5037674;28;20305;-67
2022/01/15 04:42:25;;;;;;;47.17;22.40;;;;;;;;;;5036940;28;20701;-67
2022/01/15 04:44:51;;;;;;;35.77;18.73;;;;;;;;;;5037325;28;20195;-67
2022/01/15 04:47:17;;;;;;;46.93;22.13;;;;;;;;;;5037331;28;20540;-67
2022/01/15 04:49:44;;;;;;;27.43;15.03;;;;;;;;;;5037329;28;20209;-67
2022/01/15 04:52:09;;;;;;;41.63;17.23;;;;;;;;;;5037060;28;20179;-67
2022/01/15 04:54:36;;;;;;;38.03;17.63;;;;;;;;;;5037434;28;20565;-67
2022/01/15 04:57:02;;;;;;;33.30;16.43;;;;;;;;;;5037494;28;20178;-67
2022/01/15 04:59:28;;;;;;;30.43;15.20;;;;;;;;;;5035889;28;20183;-67
2022/01/15 05:01:54;;;;;;;34.13;16.37;;;;;;;;;;5037053;28;20769;-67
2022/01/15 05:04:20;;;;;;;31.43;16.20;;;;;;;;;;5036774;28;20226;-66
2022/01/15 05:06:46;;;;;;;36.10;17.97;;;;;;;;;;5036594;28;20175;-67
2022/01/15 05:09:12;;;;;;;46.07;19.57;;;;;;;;;;5035316;28;20209;-67
2022/01/15 05:11:55;;;;;;;53.47;20.53;;;;;;;;;;5036744;28;20253;-68
2022/01/15 05:14:21;;;;;;;52.90;21.33;;;;;;;;;;5036702;28;20256;-67
2022/01/15 05:16:47;;;;;;;57.97;20.67;;;;;;;;;;5036409;28;20258;-67
2022/01/15 05:19:13;;;;;;;47.07;19.33;;;;;;;;;;5035541;28;20566;-67
2022/01/15 05:21:39;;;;;;;54.73;20.13;;;;;;;;;;5034939;28;20191;-67
2022/01/15 05:24:06;;;;;;;46.47;19.33;;;;;;;;;;5036226;28;20310;-66
2022/01/15 05:26:32;;;;;;;49.43;18.73;;;;;;;;;;5036514;28;20261;-67
2022/01/15 05:28:58;;;;;;;45.50;20.17;;;;;;;;;;5034739;28;20660;-68
2022/01/15 05:31:25;;;;;;;39.80;18.70;;;;;;;;;;5036420;28;20262;-67
2022/01/15 05:33:51;;;;;;;40.10;17.90;;;;;;;;;;5036398;28;20225;-67
2022/01/15 05:36:17;;;;;;;38.67;16.93;;;;;;;;;;5034896;28;20218;-67
2022/01/15 05:38:43;;;;;;;36.90;17.13;;;;;;;;;;5034943;28;20262;-67
2022/01/15 05:41:09;;;;;;;40.80;16.93;;;;;;;;;;5034931;28;20183;-67
2022/01/15 05:43:35;;;;;;;33.50;17.57;;;;;;;;;;5036471;28;20188;-67
2022/01/15 05:46:01;;;;;;;31.87;18.00;;;;;;;;;;5036050;28;20199;-67
2022/01/15 05:48:27;;;;;;;37.77;17.83;;;;;;;;;;5036466;28;20269;-67
2022/01/15 05:50:53;;;;;;;32.37;17.30;;;;;;;;;;5047346;28;20211;-67
2022/01/15 05:53:20;;;;;;;35.13;17.13;;;;;;;;;;5052121;28;20176;-67
2022/01/15 05:55:46;;;;;;;33.70;16.90;;;;;;;;;;5055490;28;20250;-67
2022/01/15 05:58:12;;;;;;;34.20;16.50;;;;;;;;;;5054196;28;20172;-67
2022/01/15 06:00:38;;;;;;;30.23;15.77;;;;;;;;;;5036757;28;20182;-67
2022/01/15 06:03:04;;;;;;;35.57;17.83;;;;;;;;;;5036246;28;20316;-67
2022/01/15 06:05:30;;;;;;;35.97;16.50;;;;;;;;;;5036122;28;20434;-67
2022/01/15 06:07:56;;;;;;;30.37;16.07;;;;;;;;;;5036006;28;20183;-67
2022/01/15 06:10:22;;;;;;;31.37;17.63;;;;;;;;;;5036164;28;20206;-67
2022/01/15 06:12:48;;;;;;;27.63;15.63;;;;;;;;;;5035763;28;20187;-66
2022/01/15 06:15:15;;;;;;;32.23;16.70;;;;;;;;;;5036043;28;20199;-68
2022/01/15 06:17:42;;;;;;;29.43;15.57;;;;;;;;;;5034429;28;20196;-67
2022/01/15 06:20:09;;;;;;;27.47;15.50;;;;;;;;;;5036109;28;20202;-67
2022/01/15 06:22:35;;;;;;;29.10;16.40;;;;;;;;;;5035808;28;20191;-67
2022/01/15 06:25:03;;;;;;;27.83;16.13;;;;;;;;;;5034335;28;20195;-67
2022/01/15 06:27:29;;;;;;;28.47;15.37;;;;;;;;;;5035684;28;20526;-67
2022/01/15 06:29:56;;;;;;;28.50;15.67;;;;;;;;;;5035221;28;20613;-67
2022/01/15 06:32:22;;;;;;;30.47;16.33;;;;;;;;;;5035673;28;20621;-67
2022/01/15 06:34:48;;;;;;;27.23;15.87;;;;;;;;;;5033939;28;20261;-67
2022/01/15 06:37:14;;;;;;;28.70;16.53;;;;;;;;;;5033858;28;20457;-67
2022/01/15 06:39:40;;;;;;;32.00;16.43;;;;;;;;;;5033906;28;20183;-68
2022/01/15 06:42:06;;;;;;;32.27;16.43;;;;;;;;;;5034365;28;20220;-67
2022/01/15 06:44:32;;;;;;;27.90;16.40;;;;;;;;;;5035750;28;20194;-67
2022/01/15 06:46:58;;;;;;;29.67;16.50;;;;;;;;;;5035154;28;20321;-67
2022/01/15 06:49:24;;;;;;;33.30;17.27;;;;;;;;;;5034108;28;20203;-67
2022/01/15 06:51:50;;;;;;;24.27;14.73;;;;;;;;;;5035987;28;20250;-67
2022/01/15 06:54:16;;;;;;;27.70;15.93;;;;;;;;;;5035826;28;20667;-68
2022/01/15 06:56:42;;;;;;;35.40;18.03;;;;;;;;;;5034210;28;20183;-67
2022/01/15 06:59:08;;;;;;;35.87;17.67;;;;;;;;;;5035771;28;20257;-67
2022/01/15 07:01:34;;;;;;;30.93;16.50;;;;;;;;;;5034152;28;20457;-67
2022/01/15 07:04:00;;;;;;;33.27;17.53;;;;;;;;;;5034975;28;20210;-67
2022/01/15 07:06:26;;;;;;;33.00;17.80;;;;;;;;;;5035097;28;20214;-67
2022/01/15 07:08:52;;;;;;;34.37;17.80;;;;;;;;;;5033569;28;20186;-67
2022/01/15 07:11:18;;;;;;;40.77;19.87;;;;;;;;;;5034867;28;20183;-68
2022/01/15 07:13:44;;;;;;;36.27;18.43;;;;;;;;;;5035430;28;20171;-67
2022/01/15 07:16:10;;;;;;;44.30;21.63;;;;;;;;;;5033479;28;20210;-68
2022/01/15 07:18:36;;;;;;;45.27;22.83;;;;;;;;;;5034983;28;20211;-67
2022/01/15 07:21:02;;;;;;;52.30;23.20;;;;;;;;;;5034712;28;20178;-66
2022/01/15 07:23:28;;;;;;;35.00;18.93;;;;;;;;;;5033609;28;20276;-67
2022/01/15 07:25:54;;;;;;;50.27;23.37;;;;;;;;;;5034685;28;20210;-67
2022/01/15 07:28:20;;;;;;;53.90;25.27;;;;;;;;;;5034786;28;20179;-68
2022/01/15 07:30:46;;;;;;;49.47;23.10;;;;;;;;;;5033227;28;20256;-67
2022/01/15 07:33:12;;;;;;;47.77;23.03;;;;;;;;;;5035031;28;20182;-67
2022/01/15 07:35:38;;;;;;;54.33;26.17;;;;;;;;;;5032952;28;20215;-67
2022/01/15 07:38:04;;;;;;;68.30;27.87;;;;;;;;;;5034388;28;20424;-67
2022/01/15 07:40:31;;;;;;;45.43;21.50;;;;;;;;;;5032919;28;20240;-67
2022/01/15 07:42:56;;;;;;;41.20;20.47;;;;;;;;;;5033747;28;20179;-67
2022/01/15 07:45:22;;;;;;;53.43;21.00;;;;;;;;;;5034554;28;20199;-67
2022/01/15 07:47:48;;;;;;;38.93;19.93;;;;;;;;;;5034844;28;20187;-67
2022/01/15 07:50:23;;;;;;;39.93;20.13;;;;;;;;;;5032750;28;20215;-67
2022/01/15 07:52:50;;;;;;;43.57;21.60;;;;;;;;;;5032829;28;20191;-67
2022/01/15 07:55:16;;;;;;;38.00;19.10;;;;;;;;;;5033922;28;20971;-67
2022/01/15 07:57:43;;;;;;;55.93;24.87;;;;;;;;;;5034262;28;20438;-67
2022/01/15 08:00:10;;;;;;;42.33;20.50;;;;;;;;;;5034145;28;20414;-67
2022/01/15 08:02:36;;;;;;;44.40;20.93;;;;;;;;;;5032418;28;20432;-67
2022/01/15 08:05:02;;;;;;;37.63;19.57;;;;;;;;;;5033905;28;20442;-67
2022/01/15 08:07:28;;;;;;;43.13;20.47;;;;;;;;;;5032510;28;20441;-67
2022/01/15 08:09:54;;;;;;;40.90;20.37;;;;;;;;;;5033993;28;20989;-67
2022/01/15 08:12:22;;;;;;;41.00;20.07;;;;;;;;;;5032589;28;20187;-67
2022/01/15 08:14:49;;;;;;;46.97;21.80;;;;;;;;;;5034344;28;20187;-67
2022/01/15 08:17:15;;;;;;;52.77;22.77;;;;;;;;;;5034244;28;20175;-67
2022/01/15 08:19:41;;;;;;;55.30;25.87;;;;;;;;;;5032542;28;20190;-67
2022/01/15 08:22:07;;;;;;;49.37;24.43;;;;;;;;;;5032386;28;20178;-67
2022/01/15 08:24:33;;;;;;;41.50;20.97;;;;;;;;;;5032511;28;20357;-67
2022/01/15 08:26:59;;;;;;;45.70;20.77;;;;;;;;;;5032391;28;20179;-67
2022/01/15 08:29:24;;;;;;;44.17;21.23;;;;;;;;;;5033703;28;20214;-68
2022/01/15 08:31:50;;;;;;;44.97;21.40;;;;;;;;;;5034091;28;20203;-66
2022/01/15 08:34:16;;;;;;;39.43;17.33;;;;;;;;;;5032748;28;20214;-67
2022/01/15 08:36:42;;;;;;;49.37;20.73;;;;;;;;;;5033870;28;20409;-67
2022/01/15 08:39:09;;;;;;;40.57;19.77;;;;;;;;;;5033676;28;20210;-67
2022/01/15 08:41:35;;;;;;;43.27;22.03;;;;;;;;;;5033866;28;20650;-67
2022/01/15 08:44:01;;;;;;;41.70;20.50;;;;;;;;;;5032283;28;20471;-66
2022/01/15 08:46:28;;;;;;;46.80;21.87;;;;;;;;;;5032370;28;20418;-67
2022/01/15 08:48:54;;;;;;;42.17;19.57;;;;;;;;;;5032395;28;20417;-67
2022/01/15 08:51:20;;;;;;;40.80;19.47;;;;;;;;;;5033616;28;20172;-67
2022/01/15 08:53:46;;;;;;;35.67;17.07;;;;;;;;;;5036102;28;20402;-67
2022/01/15 08:56:12;;;;;;;40.30;18.47;;;;;;;;;;5037092;28;20206;-67
2022/01/15 08:58:38;;;;;;;38.60;19.17;;;;;;;;;;5037354;28;20175;-69
2022/01/15 09:01:05;;;;;;;40.33;19.07;;;;;;;;;;5035873;28;20214;-67
2022/01/15 09:03:33;;;;;;;37.47;17.90;;;;;;;;;;5037063;28;20168;-67
2022/01/15 09:05:59;;;;;;;35.93;17.60;;;;;;;;;;5037087;28;20195;-67
2022/01/15 09:08:26;;;;;;;43.63;21.63;;;;;;;;;;5037091;28;20401;-67
2022/01/15 09:10:53;;;;;;;35.53;19.13;;;;;;;;;;5036788;28;20203;-67
2022/01/15 09:13:19;;;;;;;37.57;19.47;;;;;;;;;;5036884;28;20269;-67
2022/01/15 09:15:45;;;;;;;38.53;18.87;;;;;;;;;;5035669;28;20583;-68
2022/01/15 09:18:11;;;;;;;36.97;19.47;;;;;;;;;;5036648;28;20183;-67
2022/01/15 09:20:37;;;;;;;34.30;17.17;;;;;;;;;;5035410;28;20179;-68
2022/01/15 09:23:03;;;;;;;33.67;16.57;;;;;;;;;;5035585;28;20179;-67
2022/01/15 09:25:29;;;;;;;33.83;17.40;;;;;;;;;;5037249;28;20333;-67
2022/01/15 09:30:41;;;;;;;34.50;18.13;;;;;;;;;;5037108;28;20253;-67
2022/01/15 09:33:07;;;;;;;35.93;19.57;;;;;;;;;;5036715;28;20190;-67
2022/01/15 09:35:33;;;;;;;43.87;23.33;;;;;;;;;;5067034;23;20230;-64
2022/01/15 09:38:00;;;;;;;44.43;25.63;;;;;;;;;;5076807;28;20197;-65
2022/01/15 09:40:27;;;;;;;33.33;18.47;;;;;;;;;;5075813;28;20181;-65
2022/01/15 09:42:53;;;;;;;34.37;18.90;;;;;;;;;;5076179;28;20213;-65
2022/01/15 09:45:21;;;;;;;39.03;21.20;;;;;;;;;;5075630;28;20255;-62
2022/01/15 09:47:49;;;;;;;33.80;18.63;;;;;;;;;;5060990;28;20182;-67
2022/01/15 09:50:16;;;;;;;31.57;17.93;;;;;;;;;;5060612;28;20205;-66
2022/01/15 09:52:42;;;;;;;33.27;18.20;;;;;;;;;;5060597;28;20178;-64
2022/01/15 09:55:10;;;;;;;38.03;23.50;;;;;;;;;;5075170;28;20202;-66
2022/01/15 09:57:37;;;;;;;32.83;17.60;;;;;;;;;;5060535;28;20568;-65
2022/01/15 10:00:05;;;;;;;36.63;19.20;;;;;;;;;;5060319;28;20187;-65
2022/01/15 10:02:31;;;;;;;36.70;19.70;;;;;;;;;;5059283;28;20186;-63
2022/01/15 10:04:57;;;;;;;36.63;19.53;;;;;;;;;;5058786;28;20232;-65
2022/01/15 10:07:27;;;;;;;39.07;21.80;;;;;;;;;;5058954;28;20236;-64
2022/01/15 10:09:53;;;;;;;35.57;19.13;;;;;;;;;;5059142;28;20449;-65
2022/01/15 10:12:31;;;;;;;38.00;18.73;;;;;;;;;;5074986;28;20618;-68
2022/01/15 10:15:01;;;;;;;40.33;19.83;;;;;;;;;;5074731;28;20185;-64
2022/01/15 10:17:28;;;;;;;40.43;20.60;;;;;;;;;;5059636;28;20186;-64
2022/01/15 10:19:57;;;;;;;42.90;21.67;;;;;;;;;;5074086;28;20421;-65
2022/01/15 10:22:25;;;;;;;41.07;19.77;;;;;;;;;;5059732;28;20565;-65
2022/01/15 10:24:53;;;;;;;39.17;20.97;;;;;;;;;;5073975;28;20186;-64
2022/01/15 10:27:25;;;;;;;44.80;22.17;;;;;;;;;;5059088;28;20897;-65
2022/01/15 10:29:51;;;;;;;35.43;18.67;;;;;;;;;;5073766;28;20274;-64
2022/01/15 10:32:17;;;;;;;32.93;18.33;;;;;;;;;;5074104;28;20460;-64
2022/01/15 10:34:45;;;;;;;35.13;18.87;;;;;;;;;;5059522;28;20550;-66
2022/01/15 10:37:12;;;;;;;30.20;17.30;;;;;;;;;;5058898;28;20182;-65
2022/01/15 10:39:39;;;;;;;34.93;19.03;;;;;;;;;;5058804;28;20647;-64
2022/01/15 10:42:15;;;;;;;32.97;17.93;;;;;;;;;;5074004;28;20611;-66
2022/01/15 10:44:42;;;;;;;37.20;19.13;;;;;;;;;;5057813;28;20409;-65
2022/01/15 10:47:12;;;;;;;40.47;19.90;;;;;;;;;;5074085;28;20417;-64
2022/01/15 10:49:39;;;;;;;26.73;16.67;;;;;;;;;;5074169;28;20461;-64
2022/01/15 10:52:09;;;;;;;36.27;19.57;;;;;;;;;;5059576;28;20509;-65
2022/01/15 10:54:49;;;;;;;32.57;19.30;;;;;;;;;;5059306;28;20175;-63
2022/01/15 10:57:14;;;;;;;34.63;19.47;;;;;;;;;;5058866;28;20405;-63
2022/01/15 10:59:54;;;;;;;36.17;21.87;;;;;;;;;;5073797;28;20277;-63
2022/01/15 11:02:20;;;;;;;31.53;17.80;;;;;;;;;;5058691;28;20214;-64
2022/01/15 11:04:46;;;;;;;31.47;17.97;;;;;;;;;;5073611;28;20614;-63
2022/01/15 11:07:17;;;;;;;30.03;18.53;;;;;;;;;;5073670;28;20179;-64
2022/01/15 11:09:43;;;;;;;29.97;16.97;;;;;;;;;;5073327;28;20206;-65
2022/01/15 11:12:10;;;;;;;28.33;18.80;;;;;;;;;;5058078;28;20253;-64
2022/01/15 11:14:36;;;;;;;44.53;25.90;;;;;;;;;;5073239;28;20719;-64
2022/01/15 11:17:03;;;;;;;28.97;17.10;;;;;;;;;;5057657;28;20236;-63
2022/01/15 11:19:30;;;;;;;28.80;15.87;;;;;;;;;;5057688;28;20225;-64
2022/01/15 11:21:58;;;;;;;62.57;37.70;;;;;;;;;;5073124;28;20261;-63
2022/01/15 11:24:24;;;;;;;335.07;199.57;;;;;;;;;;5072506;28;20191;-63
2022/01/15 11:26:57;;;;;;;27.20;18.13;;;;;;;;;;5057297;28;20206;-63
2022/01/15 11:29:23;;;;;;;32.37;20.33;;;;;;;;;;5072097;28;20229;-63
2022/01/15 11:31:53;;;;;;;29.17;19.47;;;;;;;;;;5056784;28;20237;-63
2022/01/15 11:34:27;;;;;;;19.03;12.63;;;;;;;;;;5056631;28;20230;-63
2022/01/15 11:36:53;;;;;;;22.97;14.53;;;;;;;;;;5055463;28;20217;-63
2022/01/15 11:39:33;;;;;;;23.57;16.10;;;;;;;;;;5055397;28;20182;-63
2022/01/15 11:42:01;;;;;;;21.47;14.13;;;;;;;;;;5071351;28;20178;-65
2022/01/15 11:44:35;;;;;;;19.57;13.50;;;;;;;;;;5057060;28;20219;-64
2022/01/15 11:47:12;;;;;;;23.17;16.00;;;;;;;;;;5056400;28;20613;-62
2022/01/15 11:49:41;;;;;;;20.77;14.53;;;;;;;;;;5055480;28;20190;-63
2022/01/15 11:52:10;;;;;;;27.13;20.67;;;;;;;;;;5055767;28;20545;-62
2022/01/15 11:54:37;;;;;;;19.83;15.00;;;;;;;;;;5056484;28;20167;-64
2022/01/15 11:57:05;;;;;;;19.30;14.53;;;;;;;;;;5056434;28;20201;-65
2022/01/15 11:59:34;;;;;;;23.50;16.60;;;;;;;;;;5057262;28;20257;-64
2022/01/15 12:02:01;;;;;;;21.27;15.60;;;;;;;;;;5072918;28;20231;-64
2022/01/15 12:04:27;;;;;;;22.73;17.43;;;;;;;;;;5057579;28;20175;-65
2022/01/15 12:07:05;;;;;;;16.97;13.83;;;;;;;;;;5072722;28;20256;-65
2022/01/15 12:09:32;;;;;;;19.03;14.23;;;;;;;;;;5072458;28;20206;-64
2022/01/15 12:11:58;;;;;;;22.37;16.13;;;;;;;;;;5057006;28;20166;-63
2022/01/15 12:14:42;;;;;;;20.10;14.27;;;;;;;;;;5057215;28;20178;-64
2022/01/15 12:17:31;;;;;;;19.33;14.37;;;;;;;;;;5072472;28;20232;-64
2022/01/15 12:20:01;;;;;;;19.43;13.70;;;;;;;;;;5057433;28;20185;-66
2022/01/15 12:22:34;;;;;;;18.23;14.80;;;;;;;;;;5072222;28;20183;-66
2022/01/15 12:25:01;;;;;;;16.87;13.93;;;;;;;;;;5057894;28;20182;-64
2022/01/15 12:27:28;;;;;;;19.33;12.97;;;;;;;;;;5073478;28;20179;-64
2022/01/15 12:30:06;;;;;;;18.67;14.13;;;;;;;;;;5060864;28;20355;-64
2022/01/15 12:32:35;;;;;;;17.10;13.77;;;;;;;;;;5061710;28;20161;-64
2022/01/15 12:35:01;;;;;;;20.27;14.17;;;;;;;;;;5060277;28;20182;-62
2022/01/15 12:37:27;;;;;;;16.97;12.50;;;;;;;;;;5061238;28;20159;-64
2022/01/15 12:39:53;;;;;;;16.43;13.23;;;;;;;;;;5060699;28;20205;-65
2022/01/15 12:42:21;;;;;;;17.80;13.03;;;;;;;;;;5060966;28;20234;-64
2022/01/15 12:44:48;;;;;;;21.63;15.77;;;;;;;;;;5060420;28;20174;-64
2022/01/15 12:47:15;;;;;;;20.03;14.03;;;;;;;;;;5060910;28;20665;-63
2022/01/15 12:49:42;;;;;;;19.07;14.37;;;;;;;;;;5060638;28;20270;-64
2022/01/15 12:52:13;;;;;;;22.47;16.23;;;;;;;;;;5075901;28;20178;-64
2022/01/15 12:54:40;;;;;;;23.90;16.63;;;;;;;;;;5059845;28;20316;-65
2022/01/15 12:57:06;;;;;;;25.13;16.90;;;;;;;;;;5075600;28;20203;-64
2022/01/15 12:59:33;;;;;;;25.17;17.03;;;;;;;;;;5060457;28;20179;-64
2022/01/15 13:02:00;;;;;;;23.30;15.60;;;;;;;;;;5060134;28;20618;-63
2022/01/15 13:04:26;;;;;;;22.63;16.80;;;;;;;;;;5075405;28;20182;-63
2022/01/15 13:06:59;;;;;;;24.17;17.67;;;;;;;;;;5060332;28;20202;-64
2022/01/15 13:09:38;;;;;;;26.50;18.07;;;;;;;;;;5059482;28;20210;-64
2022/01/15 13:12:06;;;;;;;26.13;17.73;;;;;;;;;;5059941;28;20167;-64
2022/01/15 13:14:40;;;;;;;19.10;13.63;;;;;;;;;;5074770;28;20658;-63
2022/01/15 13:17:19;;;;;;;14.07;11.03;;;;;;;;;;5061042;28;20204;-63
2022/01/15 13:19:45;;;;;;;15.27;11.70;;;;;;;;;;5059820;28;20211;-64
2022/01/15 13:22:11;;;;;;;15.37;12.20;;;;;;;;;;5059425;28;20174;-63
2022/01/15 13:24:37;;;;;;;13.70;10.40;;;;;;;;;;5074903;28;20182;-63
2022/01/15 13:27:04;;;;;;;13.73;11.00;;;;;;;;;;5059383;28;20585;-62
2022/01/15 13:29:40;;;;;;;13.03;10.80;;;;;;;;;;5059597;28;20614;-63
2022/01/15 13:32:07;;;;;;;14.60;10.97;;;;;;;;;;5060169;28;20166;-64
2022/01/15 13:34:36;;;;;;;13.13;10.40;;;;;;;;;;5060091;28;20178;-64
2022/01/15 13:37:12;;;;;;;14.93;10.90;;;;;;;;;;5075764;28;20225;-63
2022/01/15 13:39:39;;;;;;;15.67;12.60;;;;;;;;;;5074350;28;20661;-64
2022/01/15 13:42:05;;;;;;;15.60;12.03;;;;;;;;;;5060438;28;20541;-64
2022/01/15 13:44:32;;;;;;;15.07;11.97;;;;;;;;;;5060206;28;20582;-64
2022/01/15 13:47:07;;;;;;;13.70;11.47;;;;;;;;;;5059855;28;20198;-64
2022/01/15 13:53:04;;;;;;;27.07;16.87;;;;;;;;;;5075884;28;20231;-63
2022/01/15 13:55:13;;;;;;;15.77;12.67;;;;;;;;;;5059131;28;20712;-64
2022/01/15 13:57:40;;;;;;;21.00;15.37;;;;;;;;;;5059899;28;20205;-63
2022/01/15 14:00:14;;;;;;;24.13;16.83;;;;;;;;;;5075008;28;20182;-64
2022/01/15 14:02:40;;;;;;;17.43;13.07;;;;;;;;;;5059717;28;20181;-63
2022/01/15 14:05:14;;;;;;;17.00;12.23;;;;;;;;;;5059447;28;20194;-64
2022/01/15 14:07:40;;;;;;;20.67;15.90;;;;;;;;;;5059667;28;20175;-64
2022/01/15 14:10:11;;;;;;;16.87;11.43;;;;;;;;;;5074361;28;20202;-64
2022/01/15 14:12:37;;;;;;;15.90;11.63;;;;;;;;;;5074752;28;20185;-64
2022/01/15 14:15:04;;;;;;;17.60;13.60;;;;;;;;;;5059424;28;20264;-64
2022/01/15 14:17:31;;;;;;;16.93;13.83;;;;;;;;;;5059471;28;20231;-64
2022/01/15 14:22:27;;;;;;;16.83;12.67;;;;;;;;;;5059166;28;20646;-64
2022/01/15 14:24:54;;;;;;;14.87;12.00;;;;;;;;;;5058794;28;20251;-65
2022/01/15 14:27:22;;;;;;;13.80;10.53;;;;;;;;;;5058925;28;20201;-64
2022/01/15 14:29:49;;;;;;;15.57;11.63;;;;;;;;;;5074825;28;20198;-64
2022/01/15 14:32:15;;;;;;;17.50;11.97;;;;;;;;;;5059513;28;20249;-63
2022/01/15 14:34:41;;;;;;;14.27;11.13;;;;;;;;;;5059432;28;20213;-63
2022/01/15 14:37:07;;;;;;;19.07;12.43;;;;;;;;;;5059415;28;20267;-63
2022/01/15 14:39:33;;;;;;;23.17;16.57;;;;;;;;;;5059343;28;20183;-64